Time;durP1;ratioP1;P1;durP2;ratioP2;P2;SDS_P1;SDS_P2;PMS_P1;PMS_P2;Temp;Humidity;BMP_temperature;BMP_pressure;BME280_temperature;BME280_humidity;BME280_pressure;Samples;Min_cycle;Max_cycle;Signal;HPM_P1;HPM_P2
2022/02/08 00:00:41;;;;;;;0.40;0.40;;;4.50;99.90;;;;;;5066619;28;20211;-83
2022/02/08 00:03:07;;;;;;;0.67;0.67;;;4.50;99.90;;;;;;5063616;28;20181;-83
2022/02/08 00:05:33;;;;;;;0.40;0.40;;;4.40;99.90;;;;;;5059071;28;20208;-83
2022/02/08 00:07:59;;;;;;;0.60;0.60;;;4.30;99.90;;;;;;5060065;28;20708;-83
2022/02/08 00:10:27;;;;;;;0.20;0.20;;;4.30;99.90;;;;;;5056976;28;20225;-83
2022/02/08 00:12:53;;;;;;;0.20;0.20;;;4.40;99.90;;;;;;5066753;28;20245;-83
2022/02/08 00:15:18;;;;;;;0.50;0.50;;;4.30;99.90;;;;;;5058760;28;20674;-83
2022/02/08 00:17:44;;;;;;;0.20;0.20;;;4.30;99.90;;;;;;5061010;28;20203;-83
2022/02/08 00:20:10;;;;;;;0.40;0.40;;;4.30;99.90;;;;;;5056312;28;20204;-83
2022/02/08 00:22:36;;;;;;;0.20;0.20;;;4.40;99.90;;;;;;5070324;28;20205;-83
2022/02/08 00:25:04;;;;;;;0.20;0.20;;;4.30;99.90;;;;;;5056325;28;20282;-83
2022/02/08 00:27:29;;;;;;;0.10;0.10;;;4.40;99.90;;;;;;5059212;28;20178;-83
2022/02/08 00:29:55;;;;;;;0.20;0.20;;;4.50;99.90;;;;;;5065356;28;20184;-83
2022/02/08 00:32:20;;;;;;;0.40;0.40;;;4.60;99.90;;;;;;5068393;28;20620;-83
2022/02/08 00:34:47;;;;;;;0.10;0.10;;;4.70;99.90;;;;;;5059491;28;20201;-83
2022/02/08 00:37:13;;;;;;;0.30;0.30;;;4.80;99.90;;;;;;5060900;28;20185;-83
2022/02/08 00:39:38;;;;;;;3.43;0.10;;;4.80;99.90;;;;;;5063124;28;20205;-83
2022/02/08 00:42:07;;;;;;;1.30;0.23;;;4.80;99.90;;;;;;5058710;28;20235;-83
2022/02/08 00:44:42;;;;;;;0.20;0.10;;;4.80;99.90;;;;;;5065821;28;20196;-83
2022/02/08 00:47:18;;;;;;;0.20;0.20;;;4.80;99.90;;;;;;5057567;28;20226;-83
2022/02/08 00:49:44;;;;;;;0.20;0.20;;;4.80;99.90;;;;;;5064372;28;20181;-83
2022/02/08 00:52:15;;;;;;;0.13;0.13;;;4.80;99.90;;;;;;5057013;28;20265;-83
2022/02/08 00:54:46;;;;;;;0.17;0.17;;;4.90;99.90;;;;;;5065046;28;20223;-82
2022/02/08 00:57:12;;;;;;;0.10;0.10;;;4.90;99.90;;;;;;5055900;28;20664;-83
2022/02/08 00:59:38;;;;;;;0.10;0.10;;;4.90;99.90;;;;;;5065655;28;20191;-83
2022/02/08 01:02:06;;;;;;;0.40;0.20;;;4.90;99.90;;;;;;5059686;28;20166;-83
2022/02/08 01:04:33;;;;;;;0.10;0.10;;;4.90;99.90;;;;;;5057039;28;20220;-83
2022/02/08 01:06:59;;;;;;;0.10;0.10;;;4.90;99.90;;;;;;5066580;28;20173;-83
2022/02/08 01:10:00;;;;;;;0.10;0.10;;;5.00;99.90;;;;;;5060270;28;20827;-83
2022/02/08 01:12:17;;;;;;;0.30;0.30;;;5.10;99.90;;;;;;5055727;28;20223;-83
2022/02/08 01:14:46;;;;;;;0.10;0.10;;;5.20;99.90;;;;;;5065581;28;20287;-83
2022/02/08 01:17:13;;;;;;;0.40;0.40;;;5.20;99.90;;;;;;5055418;28;20181;-83
2022/02/08 01:19:46;;;;;;;0.20;0.20;;;5.20;99.90;;;;;;5056465;28;20843;-83
2022/02/08 01:22:12;;;;;;;0.10;0.10;;;5.20;99.90;;;;;;5058892;28;20189;-83
2022/02/08 01:24:37;;;;;;;0.10;0.10;;;5.20;99.90;;;;;;5062847;28;20193;-83
2022/02/08 01:27:08;;;;;;;0.77;0.73;;;5.30;99.90;;;;;;5063414;28;20186;-83
2022/02/08 01:32:49;;;;;;;0.00;0.00;;;5.40;99.90;;;;;;5072936;28;20176;-83
2022/02/08 01:35:24;;;;;;;0.40;0.40;;;5.30;99.90;;;;;;5062507;28;20458;-83
2022/02/08 01:37:59;;;;;;;0.10;0.10;;;5.30;99.90;;;;;;5068125;28;20637;-83
2022/02/08 01:40:37;;;;;;;0.10;0.10;;;5.20;99.90;;;;;;5061378;28;20251;-83
2022/02/08 01:46:06;;;;;;;0.13;0.13;;;5.10;99.90;;;;;;5068522;28;20196;-83
2022/02/08 01:48:49;;;;;;;0.40;0.40;;;5.10;99.90;;;;;;5059317;28;20261;-83
2022/02/08 01:51:14;;;;;;;0.17;0.17;;;5.10;99.90;;;;;;5059346;28;20188;-83
2022/02/08 01:53:40;;;;;;;0.30;0.30;;;5.10;99.90;;;;;;5068462;28;20184;-82
2022/02/08 01:56:06;;;;;;;0.10;0.10;;;5.10;99.90;;;;;;5060647;28;20403;-83
2022/02/08 01:58:32;;;;;;;0.20;0.20;;;5.20;99.90;;;;;;5067183;28;20184;-82
2022/02/08 02:00:57;;;;;;;0.10;0.10;;;5.20;99.90;;;;;;5065345;28;20246;-83
2022/02/08 02:03:23;;;;;;;0.20;0.20;;;5.10;99.90;;;;;;5063552;28;20177;-83
2022/02/08 02:05:50;;;;;;;0.30;0.30;;;5.10;99.90;;;;;;5076699;28;20275;-83
2022/02/08 02:08:16;;;;;;;0.10;0.10;;;5.10;99.90;;;;;;5062268;28;20177;-83
2022/02/08 02:10:41;;;;;;;0.40;0.30;;;5.20;99.90;;;;;;5067272;28;20756;-83
2022/02/08 02:13:17;;;;;;;0.20;0.20;;;5.20;99.90;;;;;;5059741;28;20187;-83
2022/02/08 02:15:43;;;;;;;0.10;0.10;;;5.30;99.90;;;;;;5066953;28;20737;-83
2022/02/08 02:18:09;;;;;;;0.20;0.20;;;5.20;99.90;;;;;;5060103;28;20256;-83
2022/02/08 02:20:34;;;;;;;0.20;0.20;;;5.30;99.90;;;;;;5068255;28;20291;-83
2022/02/08 02:23:00;;;;;;;0.03;0.03;;;5.30;99.90;;;;;;5059368;28;20240;-83
2022/02/08 02:25:28;;;;;;;0.20;0.20;;;5.40;99.90;;;;;;5068157;28;20201;-83
2022/02/08 02:27:57;;;;;;;0.20;0.20;;;5.40;99.90;;;;;;5063866;28;20223;-83
2022/02/08 02:30:24;;;;;;;0.20;0.20;;;5.50;99.90;;;;;;5073174;28;20205;-83
2022/02/08 02:32:52;;;;;;;1.13;0.50;;;5.50;99.90;;;;;;5059621;28;20539;-83
2022/02/08 02:35:18;;;;;;;0.10;0.10;;;5.40;99.90;;;;;;5067388;28;20193;-83
2022/02/08 02:37:44;;;;;;;0.00;0.00;;;5.50;99.90;;;;;;5060357;28;20185;-82
2022/02/08 02:40:11;;;;;;;0.10;0.10;;;5.50;99.90;;;;;;5063749;28;20201;-83
2022/02/08 02:42:37;;;;;;;0.30;0.30;;;5.50;99.90;;;;;;5066657;28;20177;-83
2022/02/08 02:45:04;;;;;;;0.37;0.23;;;5.60;99.90;;;;;;5065789;28;20189;-83
2022/02/08 02:47:29;;;;;;;0.10;0.10;;;5.60;99.90;;;;;;5060730;28;20179;-82
2022/02/08 02:49:55;;;;;;;0.77;0.77;;;5.60;99.90;;;;;;5067230;28;20881;-83
2022/02/08 02:52:20;;;;;;;0.10;0.10;;;5.60;99.90;;;;;;5058909;28;20188;-83
2022/02/08 02:54:48;;;;;;;2.20;0.50;;;5.60;99.90;;;;;;5066801;28;20622;-83
2022/02/08 02:57:15;;;;;;;1.10;0.50;;;5.60;99.90;;;;;;5062285;28;20182;-83
2022/02/08 02:59:42;;;;;;;0.10;0.10;;;5.60;99.90;;;;;;5058004;28;20185;-83
2022/02/08 03:02:31;;;;;;;0.87;0.20;;;5.60;99.90;;;;;;5069212;28;20170;-83
2022/02/08 03:20:51;;;;;;;0.23;0.17;;;5.70;99.90;;;;;;5059255;28;20198;-82
2022/02/08 03:23:16;;;;;;;0.10;0.10;;;5.70;99.90;;;;;;5067332;28;20178;-83
2022/02/08 03:25:42;;;;;;;0.10;0.10;;;5.70;99.90;;;;;;5062018;28;20197;-83
2022/02/08 03:28:08;;;;;;;0.10;0.10;;;5.70;99.90;;;;;;5060337;28;20260;-83
2022/02/08 03:30:34;;;;;;;0.50;0.50;;;5.80;99.90;;;;;;5067999;28;20715;-83
2022/02/08 03:33:00;;;;;;;0.00;0.00;;;5.80;99.90;;;;;;5057372;28;20176;-83
2022/02/08 03:35:25;;;;;;;0.10;0.10;;;5.80;99.90;;;;;;5065155;28;20674;-83
2022/02/08 03:37:58;;;;;;;0.00;0.00;;;5.80;99.90;;;;;;5058579;28;20207;-83
2022/02/08 03:40:39;;;;;;;0.20;0.20;;;5.80;99.90;;;;;;5063805;28;20239;-83
2022/02/08 03:45:46;;;;;;;1.30;0.47;;;5.90;99.90;;;;;;5065603;28;20195;-83
2022/02/08 03:48:15;;;;;;;0.10;0.10;;;5.80;99.90;;;;;;5061366;28;20178;-83
2022/02/08 03:50:40;;;;;;;0.10;0.10;;;5.80;99.90;;;;;;5085486;28;20721;-83
2022/02/08 03:53:06;;;;;;;0.10;0.10;;;5.80;99.90;;;;;;5063928;28;20261;-83
2022/02/08 03:55:31;;;;;;;0.73;0.73;;;5.70;99.90;;;;;;5061138;28;20277;-83
2022/02/08 03:57:57;;;;;;;0.10;0.10;;;5.80;99.90;;;;;;5055352;28;20638;-83
2022/02/08 04:00:25;;;;;;;0.10;0.10;;;5.80;99.90;;;;;;5057261;28;20227;-83
2022/02/08 04:02:55;;;;;;;0.10;0.10;;;5.80;99.90;;;;;;5070072;28;20603;-83
2022/02/08 04:05:32;;;;;;;0.33;0.33;;;5.80;99.90;;;;;;5079962;28;20204;-84
2022/02/08 04:08:02;;;;;;;0.00;0.00;;;5.70;99.90;;;;;;5088472;28;20150;-84
2022/02/08 04:10:29;;;;;;;0.20;0.20;;;5.70;99.90;;;;;;5087888;28;20173;-83
2022/02/08 04:15:37;;;;;;;0.00;0.00;;;5.70;99.90;;;;;;5078919;28;20215;-83
2022/02/08 04:37:45;;;;;;;0.10;0.10;;;5.80;99.90;;;;;;5061029;28;20199;-83
2022/02/08 04:42:40;;;;;;;0.20;0.20;;;5.70;99.90;;;;;;5063557;28;20219;-83
2022/02/08 04:45:31;;;;;;;0.17;0.10;;;5.70;99.90;;;;;;5066338;28;20196;-83
2022/02/08 04:50:23;;;;;;;0.10;0.10;;;5.80;99.90;;;;;;5063882;28;20181;-83
2022/02/08 04:52:51;;;;;;;0.20;0.13;;;5.80;99.90;;;;;;5061277;28;20208;-83
2022/02/08 05:36:25;;;;;;;0.10;0.10;;;5.40;99.90;;;;;;5070714;28;20231;-83
2022/02/08 05:44:34;;;;;;;0.20;0.20;;;5.20;99.90;;;;;;5050737;28;20213;-83
2022/02/08 05:47:00;;;;;;;0.10;0.10;;;5.30;99.90;;;;;;5067954;28;20169;-83
2022/02/08 05:49:39;;;;;;;0.30;0.30;;;5.30;99.90;;;;;;5069204;28;20173;-83
2022/02/08 05:54:39;;;;;;;0.10;0.10;;;5.30;99.90;;;;;;5061280;28;20326;-83
2022/02/08 05:57:05;;;;;;;0.10;0.10;;;5.40;99.90;;;;;;5069497;28;20181;-83
2022/02/08 05:59:31;;;;;;;0.30;0.30;;;5.50;99.90;;;;;;5060188;28;20174;-83
2022/02/08 06:01:56;;;;;;;0.50;0.27;;;5.70;99.90;;;;;;5065700;28;20181;-83
2022/02/08 06:04:22;;;;;;;0.10;0.10;;;5.70;99.90;;;;;;5059121;28;20724;-83
2022/02/08 06:06:47;;;;;;;0.00;0.00;;;5.70;99.90;;;;;;5069490;28;20181;-83
2022/02/08 06:09:13;;;;;;;0.10;0.10;;;5.80;99.90;;;;;;5060381;28;20187;-83
2022/02/08 06:11:39;;;;;;;0.10;0.10;;;5.70;99.90;;;;;;5062162;28;20182;-83
2022/02/08 06:14:05;;;;;;;0.17;0.17;;;5.80;99.90;;;;;;5065879;28;20301;-83
2022/02/08 06:16:32;;;;;;;0.63;0.63;;;5.70;99.90;;;;;;5062438;28;20188;-83
2022/02/08 06:18:57;;;;;;;0.07;0.07;;;5.80;99.90;;;;;;5063084;28;20653;-83
2022/02/08 06:21:24;;;;;;;0.00;0.00;;;5.70;99.90;;;;;;5064356;28;20194;-83
2022/02/08 06:23:49;;;;;;;0.30;0.30;;;5.70;99.90;;;;;;5060913;28;20188;-83
2022/02/08 06:26:16;;;;;;;0.10;0.10;;;5.80;99.90;;;;;;5070401;28;20248;-83
2022/02/08 06:28:42;;;;;;;0.10;0.10;;;5.70;99.90;;;;;;5061333;28;20174;-83
2022/02/08 06:31:09;;;;;;;0.10;0.10;;;5.70;99.90;;;;;;5068932;28;20170;-83
2022/02/08 06:33:35;;;;;;;0.10;0.10;;;5.70;99.90;;;;;;5068619;28;20202;-83
2022/02/08 06:36:00;;;;;;;0.30;0.10;;;5.70;99.90;;;;;;5058169;28;20196;-83
2022/02/08 06:38:26;;;;;;;0.10;0.10;;;5.80;99.90;;;;;;5069909;28;20184;-83
2022/02/08 06:40:53;;;;;;;0.10;0.10;;;5.80;99.90;;;;;;5063952;28;20195;-83
2022/02/08 06:43:20;;;;;;;0.10;0.10;;;5.90;99.90;;;;;;5065466;28;20204;-83
2022/02/08 06:45:46;;;;;;;0.20;0.20;;;5.90;99.90;;;;;;5067893;28;20224;-83
2022/02/08 06:48:12;;;;;;;0.80;0.40;;;5.90;99.90;;;;;;5067036;28;20227;-83
2022/02/08 06:50:38;;;;;;;0.03;0.03;;;6.00;99.90;;;;;;5060963;28;20186;-83
2022/02/08 06:53:04;;;;;;;0.10;0.10;;;5.90;99.90;;;;;;5068033;28;20185;-83
2022/02/08 06:55:30;;;;;;;0.10;0.10;;;5.90;99.90;;;;;;5062612;28;20753;-83
2022/02/08 07:00:31;;;;;;;0.40;0.40;;;6.00;99.90;;;;;;5063106;28;20700;-83
2022/02/08 07:02:57;;;;;;;0.70;0.30;;;6.10;99.90;;;;;;5070919;28;20271;-83
2022/02/08 07:05:23;;;;;;;0.40;0.40;;;6.00;99.90;;;;;;5067876;28;20225;-83
2022/02/08 07:07:48;;;;;;;0.83;0.83;;;6.10;99.90;;;;;;5068782;28;20553;-83
2022/02/08 07:10:14;;;;;;;0.40;0.40;;;6.10;99.90;;;;;;5060773;28;20185;-83
2022/02/08 07:12:40;;;;;;;0.20;0.20;;;6.20;99.90;;;;;;5067865;28;20209;-83
2022/02/08 07:15:13;;;;;;;0.30;0.30;;;6.20;99.90;;;;;;5059426;28;20297;-83
2022/02/08 07:17:40;;;;;;;0.17;0.17;;;6.30;99.90;;;;;;5069239;28;20681;-83
2022/02/08 07:20:06;;;;;;;0.10;0.10;;;6.30;99.90;;;;;;5059728;28;20200;-83
2022/02/08 07:22:32;;;;;;;0.40;0.40;;;6.40;99.90;;;;;;5069613;28;20256;-83
2022/02/08 07:24:58;;;;;;;0.10;0.10;;;6.40;99.90;;;;;;5060103;28;20239;-83
2022/02/08 07:27:26;;;;;;;0.17;0.13;;;6.40;99.90;;;;;;5061363;28;20174;-83
2022/02/08 07:29:53;;;;;;;0.50;0.50;;;6.40;99.90;;;;;;5067873;28;20721;-83
2022/02/08 07:32:27;;;;;;;0.10;0.10;;;6.40;99.90;;;;;;5073272;28;20177;-83
2022/02/08 07:35:04;;;;;;;0.10;0.10;;;6.40;99.90;;;;;;5061305;28;20254;-82
2022/02/08 07:37:45;;;;;;;0.10;0.10;;;6.40;99.90;;;;;;5065343;28;20667;-83
2022/02/08 07:40:16;;;;;;;5.20;0.30;;;6.40;99.90;;;;;;5063033;28;20747;-83
2022/02/08 07:42:41;;;;;;;0.30;0.20;;;6.40;99.90;;;;;;5064595;28;20548;-83
2022/02/08 07:45:07;;;;;;;0.33;0.27;;;6.40;99.90;;;;;;5061701;28;20204;-82
2022/02/08 07:47:33;;;;;;;0.30;0.30;;;6.30;99.90;;;;;;5062084;28;20673;-83
2022/02/08 07:49:58;;;;;;;0.30;0.30;;;6.30;99.90;;;;;;5064205;28;20209;-83
2022/02/08 07:52:24;;;;;;;0.30;0.30;;;6.30;99.90;;;;;;5059595;28;20256;-83
2022/02/08 07:54:49;;;;;;;0.77;0.57;;;6.30;99.90;;;;;;5060104;28;20670;-83
2022/02/08 07:57:15;;;;;;;0.10;0.10;;;6.30;99.90;;;;;;5065763;28;20182;-83
2022/02/08 07:59:40;;;;;;;0.00;0.00;;;6.20;99.90;;;;;;5057624;28;20227;-84
2022/02/08 08:02:06;;;;;;;0.30;0.30;;;6.30;99.90;;;;;;5068089;28;20215;-83
2022/02/08 08:04:32;;;;;;;0.10;0.10;;;6.30;99.90;;;;;;5055987;28;20213;-83
2022/02/08 08:07:00;;;;;;;0.07;0.07;;;6.20;99.90;;;;;;5058189;28;20200;-84
2022/02/08 08:09:26;;;;;;;0.30;0.30;;;6.30;99.90;;;;;;5068144;28;20173;-82
2022/02/08 08:11:52;;;;;;;0.10;0.10;;;6.30;99.90;;;;;;5059216;28;20182;-83
2022/02/08 08:14:21;;;;;;;0.57;0.57;;;6.30;99.90;;;;;;5068266;28;20707;-83
2022/02/08 08:16:58;;;;;;;1.17;1.07;;;6.30;99.90;;;;;;5059448;28;20235;-83
2022/02/08 08:19:37;;;;;;;2.33;0.43;;;6.40;99.90;;;;;;5058883;28;20189;-83
2022/02/08 08:22:08;;;;;;;1.60;0.73;;;6.40;99.90;;;;;;5059439;28;20669;-83
2022/02/08 08:24:34;;;;;;;0.20;0.20;;;6.40;99.90;;;;;;5066048;28;20577;-83
2022/02/08 08:27:00;;;;;;;0.10;0.10;;;6.50;99.90;;;;;;5060905;28;20198;-83
2022/02/08 08:29:25;;;;;;;0.37;0.37;;;6.50;99.90;;;;;;5055158;28;20252;-84
2022/02/08 08:31:51;;;;;;;0.53;0.40;;;6.50;99.90;;;;;;5059951;28;20181;-83
2022/02/08 08:34:17;;;;;;;0.37;0.37;;;6.40;99.90;;;;;;5062770;28;20201;-83
2022/02/08 08:36:43;;;;;;;0.20;0.20;;;6.50;99.90;;;;;;5073906;28;20242;-83
2022/02/08 08:39:10;;;;;;;0.10;0.10;;;6.60;99.90;;;;;;5068491;28;20190;-83
2022/02/08 08:41:47;;;;;;;0.40;0.40;;;6.50;99.90;;;;;;5059476;28;20213;-83
2022/02/08 08:49:37;;;;;;;1.00;0.33;;;6.50;99.90;;;;;;5067544;28;20191;-83
2022/02/08 08:52:03;;;;;;;0.20;0.20;;;6.60;99.90;;;;;;5060508;28;20530;-83
2022/02/08 08:54:29;;;;;;;0.20;0.20;;;6.60;99.90;;;;;;5059229;28;20271;-83
2022/02/08 08:56:54;;;;;;;2.17;0.17;;;6.70;99.90;;;;;;5066998;28;20702;-83
2022/02/08 08:59:21;;;;;;;0.20;0.20;;;6.80;99.90;;;;;;5069272;28;20184;-83
2022/02/08 09:01:48;;;;;;;0.67;0.40;;;6.90;99.90;;;;;;5062479;28;20201;-84
2022/02/08 09:04:18;;;;;;;0.13;0.13;;;7.00;99.90;;;;;;5065722;28;20215;-83
2022/02/08 09:06:45;;;;;;;1.40;0.60;;;7.00;99.90;;;;;;5056728;28;20651;-84
2022/02/08 09:09:14;;;;;;;0.10;0.10;;;7.00;99.90;;;;;;5064898;28;20185;-84
2022/02/08 09:14:11;;;;;;;0.40;0.40;;;7.00;99.90;;;;;;5071158;28;20232;-84
2022/02/08 09:16:51;;;;;;;0.97;0.57;;;7.10;99.90;;;;;;5058834;28;20200;-83
2022/02/08 09:27:44;;;;;;;0.30;0.30;;;7.30;99.90;;;;;;5060210;28;20263;-84
2022/02/08 09:30:10;;;;;;;0.10;0.10;;;7.30;99.90;;;;;;5056800;28;20304;-83
2022/02/08 09:35:06;;;;;;;1.20;0.60;;;7.60;99.90;;;;;;5058130;28;20210;-83
2022/02/08 09:37:33;;;;;;;0.87;0.40;;;7.60;99.90;;;;;;5063364;28;20442;-83
2022/02/08 09:40:03;;;;;;;0.10;0.10;;;7.60;99.90;;;;;;5064366;28;20210;-83
2022/02/08 09:42:28;;;;;;;0.13;0.13;;;7.50;99.90;;;;;;5065974;28;20185;-83
2022/02/08 09:44:55;;;;;;;0.47;0.20;;;7.60;99.90;;;;;;5061695;28;21890;-84
2022/02/08 09:47:31;;;;;;;0.10;0.10;;;7.50;99.90;;;;;;5064708;28;20189;-84
2022/02/08 09:50:04;;;;;;;0.50;0.50;;;7.60;99.90;;;;;;5062166;28;20175;-83
2022/02/08 09:52:29;;;;;;;3.30;0.57;;;7.50;99.90;;;;;;5063307;28;20584;-83
2022/02/08 09:54:55;;;;;;;0.50;0.47;;;7.60;99.90;;;;;;5068169;28;20190;-83
2022/02/08 09:57:20;;;;;;;0.30;0.30;;;7.70;99.90;;;;;;5059892;28;20181;-84
2022/02/08 09:59:47;;;;;;;0.13;0.13;;;7.70;99.90;;;;;;5068300;28;20230;-83
2022/02/08 10:02:18;;;;;;;0.27;0.20;;;7.80;99.90;;;;;;5084297;28;20182;-83
2022/02/08 10:04:43;;;;;;;0.43;0.43;;;7.80;99.90;;;;;;5070884;28;20239;-83
2022/02/08 10:07:13;;;;;;;1.03;1.03;;;7.80;99.90;;;;;;5066044;28;20208;-83
2022/02/08 10:09:39;;;;;;;0.10;0.10;;;7.90;99.90;;;;;;5057468;28;20194;-83
2022/02/08 10:12:05;;;;;;;0.30;0.30;;;7.80;99.90;;;;;;5068816;28;20182;-83
2022/02/08 10:18:52;;;;;;;0.23;0.23;;;7.80;99.90;;;;;;5058727;28;20216;-84
2022/02/08 10:23:11;;;;;;;0.30;0.30;;;7.90;99.90;;;;;;5058543;28;20568;-84
2022/02/08 10:28:51;;;;;;;0.10;0.10;;;8.10;99.90;;;;;;5066466;28;20188;-84
2022/02/08 10:39:24;;;;;;;0.20;0.20;;;8.60;99.90;;;;;;5062823;28;20550;-83
2022/02/08 10:41:49;;;;;;;0.20;0.20;;;8.60;99.90;;;;;;5067149;28;20261;-84
2022/02/08 10:44:15;;;;;;;0.10;0.10;;;8.80;99.90;;;;;;5067289;28;20201;-85
2022/02/08 10:46:42;;;;;;;0.30;0.30;;;8.90;99.90;;;;;;5065989;28;20185;-84
2022/02/08 10:49:13;;;;;;;0.70;0.33;;;8.80;99.90;;;;;;5067854;28;20185;-84
2022/02/08 10:52:01;;;;;;;0.13;0.10;;;8.70;99.90;;;;;;5061727;28;20240;-83
2022/02/08 10:54:39;;;;;;;0.10;0.10;;;8.80;99.90;;;;;;5067761;28;20205;-84
2022/02/08 10:57:13;;;;;;;0.10;0.10;;;8.70;99.90;;;;;;5058613;28;20178;-84
2022/02/08 10:59:52;;;;;;;0.10;0.10;;;8.70;99.90;;;;;;5067110;28;20723;-84
2022/02/08 11:02:28;;;;;;;0.10;0.10;;;8.80;99.90;;;;;;5082790;28;20175;-84
2022/02/08 11:05:03;;;;;;;0.10;0.10;;;8.90;99.90;;;;;;5068795;28;20223;-84
2022/02/08 11:07:55;;;;;;;0.10;0.10;;;9.00;99.90;;;;;;5057405;28;20177;-83
2022/02/08 11:10:30;;;;;;;0.10;0.10;;;9.00;99.90;;;;;;5059069;28;20203;-83
2022/02/08 11:21:22;;;;;;;0.20;0.20;;;9.00;99.90;;;;;;5067967;28;20341;-84
2022/02/08 11:24:06;;;;;;;0.00;0.00;;;9.00;99.90;;;;;;5059619;28;20669;-84
2022/02/08 11:26:38;;;;;;;7.63;0.57;;;9.00;99.90;;;;;;5069640;28;20180;-84
2022/02/08 11:29:19;;;;;;;0.10;0.10;;;9.00;99.90;;;;;;5064838;28;20192;-83
2022/02/08 11:31:52;;;;;;;0.10;0.10;;;9.00;99.90;;;;;;5059515;28;20303;-83
2022/02/08 11:39:15;;;;;;;0.83;0.83;;;8.90;99.90;;;;;;5064062;28;20207;-83
2022/02/08 11:49:28;;;;;;;0.20;0.10;;;9.20;99.90;;;;;;5067568;28;20562;-83
2022/02/08 11:52:16;;;;;;;0.10;0.10;;;9.20;99.90;;;;;;5068826;28;20209;-84
2022/02/08 12:00:22;;;;;;;0.17;0.17;;;9.20;99.90;;;;;;5058464;28;20184;-84
2022/02/08 12:03:12;;;;;;;0.10;0.10;;;9.20;99.90;;;;;;5066085;28;20271;-84
2022/02/08 12:05:50;;;;;;;0.00;0.00;;;9.30;99.90;;;;;;5058874;28;20235;-83
2022/02/08 12:08:16;;;;;;;0.30;0.30;;;9.30;99.90;;;;;;5060139;28;20179;-84
2022/02/08 12:11:13;;;;;;;0.37;0.37;;;9.30;99.90;;;;;;5066444;28;20564;-83
2022/02/08 12:31:28;;;;;;;0.27;0.23;;;8.90;99.90;;;;;;5058616;28;20744;-84
2022/02/08 12:36:11;;;;;;;0.10;0.10;;;8.90;99.90;;;;;;5074411;28;20205;-84
2022/02/08 12:53:33;;;;;;;0.10;0.10;;;8.90;99.90;;;;;;5070848;28;20184;-84
2022/02/08 12:58:24;;;;;;;0.10;0.10;;;8.90;99.90;;;;;;5063062;28;20543;-84
2022/02/08 13:01:22;;;;;;;0.10;0.10;;;8.90;99.90;;;;;;5063410;28;20226;-84
2022/02/08 13:04:03;;;;;;;0.50;0.17;;;9.00;99.90;;;;;;5059634;28;20185;-83
2022/02/08 14:03:50;;;;;;;0.10;0.10;;;9.40;99.90;;;;;;5070309;28;20269;-84
2022/02/08 14:16:32;;;;;;;0.10;0.10;;;9.20;99.90;;;;;;5062051;28;20767;-84
2022/02/08 14:24:48;;;;;;;0.03;0.03;;;9.10;99.90;;;;;;5066585;28;20188;-84
2022/02/08 14:48:48;;;;;;;0.10;0.10;;;9.20;99.90;;;;;;5066633;28;20212;-84
2022/02/08 15:10:06;;;;;;;0.10;0.10;;;9.00;99.90;;;;;;5059871;28;20704;-84
2022/02/08 15:12:35;;;;;;;0.40;0.20;;;9.10;99.90;;;;;;5057993;28;20187;-83
2022/02/08 15:15:10;;;;;;;0.10;0.10;;;9.00;99.90;;;;;;5059337;28;20716;-84
2022/02/08 15:17:36;;;;;;;0.20;0.20;;;9.00;99.90;;;;;;5061619;28;20181;-83
2022/02/08 15:20:04;;;;;;;0.10;0.10;;;9.00;99.90;;;;;;5067143;28;20642;-83
2022/02/08 15:22:29;;;;;;;0.20;0.20;;;9.00;99.90;;;;;;5063070;28;20195;-83
2022/02/08 15:24:58;;;;;;;0.10;0.10;;;9.00;99.90;;;;;;5067022;28;20189;-84
2022/02/08 15:27:27;;;;;;;0.10;0.10;;;9.00;99.90;;;;;;5062816;28;20677;-83
2022/02/08 15:29:54;;;;;;;0.10;0.10;;;9.00;99.90;;;;;;5067989;28;20180;-84
2022/02/08 15:32:20;;;;;;;0.30;0.30;;;9.00;99.90;;;;;;5061303;28;20180;-84
2022/02/08 15:34:47;;;;;;;0.83;0.43;;;9.10;99.90;;;;;;5065691;28;20194;-84
2022/02/08 15:37:13;;;;;;;2.47;0.30;;;9.10;99.90;;;;;;5062573;28;20668;-84
2022/02/08 15:39:39;;;;;;;0.43;0.43;;;9.00;99.90;;;;;;5060761;28;20184;-83
2022/02/08 15:42:05;;;;;;;0.50;0.20;;;9.00;99.90;;;;;;5064507;28;20684;-84
2022/02/08 15:44:32;;;;;;;0.20;0.20;;;8.90;99.90;;;;;;5057242;28;20228;-84
2022/02/08 15:47:03;;;;;;;0.97;0.37;;;8.90;99.90;;;;;;5066518;28;20166;-84
2022/02/08 15:49:31;;;;;;;0.30;0.30;;;8.90;99.90;;;;;;5057422;28;20177;-83
2022/02/08 15:52:10;;;;;;;0.10;0.10;;;8.90;99.90;;;;;;5068906;28;20550;-84
2022/02/08 15:54:40;;;;;;;0.10;0.10;;;8.90;99.90;;;;;;5057077;28;20200;-83
2022/02/08 16:05:46;;;;;;;0.20;0.20;;;8.80;99.90;;;;;;5065121;28;20234;-84
2022/02/08 16:08:25;;;;;;;0.17;0.17;;;8.90;99.90;;;;;;5065666;28;20663;-84
2022/02/08 16:11:03;;;;;;;0.10;0.10;;;8.80;99.90;;;;;;5059701;28;20709;-84
2022/02/08 16:22:10;;;;;;;0.20;0.20;;;8.80;99.90;;;;;;5063702;28;20256;-84
2022/02/08 16:46:16;;;;;;;0.50;0.40;;;8.50;99.90;;;;;;5067977;28;20201;-83
2022/02/08 16:59:43;;;;;;;0.30;0.30;;;8.50;99.90;;;;;;5057878;28;20540;-83
2022/02/08 17:02:09;;;;;;;0.30;0.30;;;8.50;99.90;;;;;;5058893;28;20208;-84
2022/02/08 17:04:35;;;;;;;1.00;0.40;;;8.50;99.90;;;;;;5062028;28;20264;-83
2022/02/08 17:07:04;;;;;;;0.20;0.20;;;8.50;99.90;;;;;;5062630;28;20646;-84
2022/02/08 17:09:48;;;;;;;0.20;0.20;;;8.50;99.90;;;;;;5065601;28;20181;-84
2022/02/08 17:12:31;;;;;;;0.10;0.10;;;8.50;99.90;;;;;;5059326;28;20306;-84
2022/02/08 17:47:41;;;;;;;0.20;0.20;;;8.70;99.90;;;;;;5060594;28;20247;-84
2022/02/08 17:50:09;;;;;;;0.50;0.50;;;8.70;99.90;;;;;;5062450;28;20177;-84
2022/02/08 17:52:37;;;;;;;0.10;0.10;;;8.80;99.90;;;;;;5056594;28;20208;-83
2022/02/08 17:55:05;;;;;;;0.10;0.10;;;8.80;99.90;;;;;;5064096;28;20192;-84
2022/02/08 17:57:30;;;;;;;0.10;0.10;;;8.80;99.90;;;;;;5056499;28;20176;-84
2022/02/08 17:59:57;;;;;;;0.40;0.40;;;8.80;99.90;;;;;;5065919;28;20657;-84
2022/02/08 18:02:23;;;;;;;0.20;0.20;;;8.80;99.90;;;;;;5058220;28;20216;-83
2022/02/08 18:04:50;;;;;;;0.40;0.40;;;8.80;99.90;;;;;;5066111;28;20585;-84
2022/02/08 18:07:19;;;;;;;0.67;0.67;;;8.90;99.90;;;;;;5063762;28;20197;-84
2022/02/08 18:09:46;;;;;;;0.20;0.20;;;8.80;99.90;;;;;;5059601;28;20210;-84
2022/02/08 18:12:12;;;;;;;0.30;0.30;;;8.80;99.90;;;;;;5065737;28;20225;-83
2022/02/08 18:14:41;;;;;;;0.17;0.17;;;8.80;99.90;;;;;;5058768;28;20228;-84
2022/02/08 18:17:11;;;;;;;0.40;0.40;;;8.80;99.90;;;;;;5069593;28;20568;-84
2022/02/08 18:19:40;;;;;;;0.23;0.23;;;8.90;99.90;;;;;;5061235;28;20184;-84
2022/02/08 19:12:22;;;;;;;0.30;0.13;;;8.60;99.90;;;;;;5059189;28;20183;-84
2022/02/08 19:22:07;;;;;;;0.40;0.40;;;8.60;99.90;;;;;;5062445;28;20295;-84
2022/02/08 19:24:33;;;;;;;0.20;0.20;;;8.60;99.90;;;;;;5063765;28;20587;-84
2022/02/08 19:27:00;;;;;;;0.20;0.20;;;8.60;99.90;;;;;;5065986;28;20186;-84
2022/02/08 19:29:29;;;;;;;0.40;0.40;;;8.60;99.90;;;;;;5061715;28;20181;-83
2022/02/08 19:31:55;;;;;;;0.23;0.23;;;8.60;99.90;;;;;;5065463;28;20206;-84
2022/02/08 19:34:20;;;;;;;0.57;0.57;;;8.60;99.90;;;;;;5059096;28;20242;-84
2022/02/08 19:36:47;;;;;;;0.77;0.77;;;8.60;99.90;;;;;;5056715;28;20184;-84
2022/02/08 19:39:13;;;;;;;1.30;0.67;;;8.60;99.90;;;;;;5067105;28;20231;-84
2022/02/08 19:41:39;;;;;;;0.70;0.70;;;8.60;99.90;;;;;;5058941;28;20287;-84
2022/02/08 19:44:09;;;;;;;0.50;0.50;;;8.60;99.90;;;;;;5066924;28;20174;-84
2022/02/08 19:46:36;;;;;;;0.23;0.23;;;8.50;99.90;;;;;;5055829;28;20174;-83
2022/02/08 19:49:02;;;;;;;0.40;0.40;;;8.50;99.90;;;;;;5066784;28;20178;-83
2022/02/08 19:51:28;;;;;;;0.80;0.40;;;8.50;99.90;;;;;;5057005;28;20180;-83
2022/02/08 19:53:56;;;;;;;0.47;0.40;;;8.60;99.90;;;;;;5066165;28;20249;-84
2022/02/08 19:56:28;;;;;;;1.70;0.43;;;8.50;99.90;;;;;;5058799;28;20191;-83
2022/02/08 19:58:56;;;;;;;0.27;0.27;;;8.50;99.90;;;;;;5066669;28;20680;-84
2022/02/08 20:01:34;;;;;;;0.20;0.20;;;8.50;99.90;;;;;;5060391;28;20205;-84
2022/02/08 20:04:15;;;;;;;0.60;0.60;;;8.50;99.90;;;;;;5064929;28;20182;-83
2022/02/08 20:06:40;;;;;;;0.73;0.50;;;8.50;99.90;;;;;;5065034;28;20174;-84
2022/02/08 20:09:07;;;;;;;0.53;0.53;;;8.50;99.90;;;;;;5057938;28;20664;-84
2022/02/08 20:11:33;;;;;;;0.20;0.20;;;8.50;99.90;;;;;;5064814;28;20190;-83
2022/02/08 20:14:02;;;;;;;0.10;0.10;;;8.50;99.90;;;;;;5069069;28;20183;-84
2022/02/08 20:16:29;;;;;;;0.27;0.20;;;8.60;99.90;;;;;;5060489;28;20184;-84
2022/02/08 20:18:58;;;;;;;0.30;0.30;;;8.60;99.90;;;;;;5060813;28;20191;-83
2022/02/08 20:21:26;;;;;;;0.57;0.43;;;8.60;99.90;;;;;;5062223;28;20209;-84
2022/02/08 20:23:53;;;;;;;0.50;0.50;;;8.50;99.90;;;;;;5058784;28;20637;-83
2022/02/08 20:26:22;;;;;;;0.37;0.37;;;8.60;99.90;;;;;;5068636;28;20192;-84
2022/02/08 20:28:54;;;;;;;0.73;0.27;;;8.60;99.90;;;;;;5065148;28;20307;-84
2022/02/08 20:31:20;;;;;;;0.20;0.20;;;8.60;99.90;;;;;;5071303;28;20188;-84
2022/02/08 20:33:46;;;;;;;0.10;0.10;;;8.60;99.90;;;;;;5057466;28;20661;-84
2022/02/08 20:36:13;;;;;;;0.10;0.10;;;8.50;99.90;;;;;;5065488;28;20257;-84
2022/02/08 20:38:39;;;;;;;0.30;0.30;;;8.50;99.90;;;;;;5056612;28;20184;-84
2022/02/08 20:41:05;;;;;;;0.20;0.20;;;8.50;99.90;;;;;;5067287;28;20205;-84
2022/02/08 20:43:36;;;;;;;0.60;0.47;;;8.50;99.90;;;;;;5062821;28;20186;-83